Time;durP1;ratioP1;P1;durP2;ratioP2;P2;SDS_P1;SDS_P2;PMS_P1;PMS_P2;Temp;Humidity;BMP_temperature;BMP_pressure;BME280_temperature;BME280_humidity;BME280_pressure;Samples;Min_cycle;Max_cycle;Signal;HPM_P1;HPM_P2
2021/07/19 00:01:45;;;;;;;;;;;20.20;66.50;;;;;;482884;246;1168;-44
2021/07/19 00:03:46;;;;;;;;;;;20.20;66.60;;;;;;482918;246;1059;-44
2021/07/19 00:05:47;;;;;;;;;;;20.20;66.50;;;;;;482890;246;2145;-44
2021/07/19 00:07:48;;;;;;;;;;;20.20;66.50;;;;;;482314;246;1679;-44
2021/07/19 00:09:50;;;;;;;;;;;20.20;66.60;;;;;;482425;246;1202;-44
2021/07/19 00:11:51;;;;;;;;;;;20.20;66.60;;;;;;482773;246;1349;-44
2021/07/19 00:13:52;;;;;;;;;;;20.20;66.50;;;;;;482922;246;1089;-44
2021/07/19 00:15:54;;;;;;;;;;;20.20;66.60;;;;;;482863;246;1150;-43
2021/07/19 00:17:55;;;;;;;;;;;20.20;66.60;;;;;;482651;246;1264;-44
2021/07/19 00:19:56;;;;;;;;;;;20.20;66.50;;;;;;482892;246;1207;-44
2021/07/19 00:21:58;;;;;;;;;;;20.20;66.50;;;;;;482782;246;1248;-44
2021/07/19 00:23:59;;;;;;;;;;;20.20;66.50;;;;;;482597;246;1122;-44
2021/07/19 00:26:00;;;;;;;;;;;20.20;66.60;;;;;;482537;246;2165;-44
2021/07/19 00:28:03;;;;;;;;;;;20.20;66.60;;;;;;482840;246;1195;-44
2021/07/19 00:30:03;;;;;;;;;;;20.20;66.60;;;;;;482432;247;2190;-44
2021/07/19 00:32:04;;;;;;;;;;;20.20;66.60;;;;;;482466;246;1313;-44
2021/07/19 00:34:06;;;;;;;;;;;20.20;66.60;;;;;;482890;246;1220;-44
2021/07/19 00:36:07;;;;;;;;;;;20.20;66.60;;;;;;482451;246;1343;-44
2021/07/19 00:38:08;;;;;;;;;;;20.20;66.50;;;;;;482891;246;1301;-44
2021/07/19 00:40:10;;;;;;;;;;;20.20;66.50;;;;;;482787;246;1122;-44
2021/07/19 00:42:11;;;;;;;;;;;20.20;66.60;;;;;;482604;246;1222;-44
2021/07/19 00:44:17;;;;;;;;;;;20.20;66.50;;;;;;482612;246;1183;-44
2021/07/19 00:46:13;;;;;;;;;;;20.20;66.60;;;;;;482108;246;2376;-44
2021/07/19 00:48:15;;;;;;;;;;;20.20;66.50;;;;;;482441;246;1127;-44
2021/07/19 00:50:16;;;;;;;;;;;20.20;66.50;;;;;;482895;246;1074;-44
2021/07/19 00:52:17;;;;;;;;;;;20.20;66.60;;;;;;482593;246;1337;-44
2021/07/19 00:54:19;;;;;;;;;;;20.20;66.60;;;;;;482731;246;1063;-44
2021/07/19 00:56:20;;;;;;;;;;;20.20;66.50;;;;;;482257;246;1146;-44
2021/07/19 00:58:22;;;;;;;;;;;20.20;66.50;;;;;;482901;246;1163;-44
2021/07/19 01:00:23;;;;;;;;;;;20.20;66.50;;;;;;482881;246;1227;-44
2021/07/19 01:02:24;;;;;;;;;;;20.20;66.60;;;;;;482645;246;1235;-44
2021/07/19 01:04:25;;;;;;;;;;;20.20;66.50;;;;;;482542;246;1222;-44
2021/07/19 01:06:27;;;;;;;;;;;20.20;66.60;;;;;;482419;246;2154;-44
2021/07/19 01:08:28;;;;;;;;;;;20.20;66.60;;;;;;482642;246;1304;-44
2021/07/19 01:10:29;;;;;;;;;;;20.20;66.60;;;;;;482685;246;1428;-44
2021/07/19 01:12:31;;;;;;;;;;;20.20;66.70;;;;;;482487;246;1328;-44
2021/07/19 01:14:32;;;;;;;;;;;20.20;66.60;;;;;;482824;246;1281;-44
2021/07/19 01:16:33;;;;;;;;;;;20.20;66.60;;;;;;482570;246;1266;-44
2021/07/19 01:18:35;;;;;;;;;;;20.20;66.70;;;;;;482888;246;1310;-44
2021/07/19 01:20:36;;;;;;;;;;;20.20;66.70;;;;;;482549;246;1436;-44
2021/07/19 01:22:37;;;;;;;;;;;20.20;66.60;;;;;;482416;246;1326;-44
2021/07/19 01:24:39;;;;;;;;;;;20.20;66.70;;;;;;482762;246;1269;-44
2021/07/19 01:26:40;;;;;;;;;;;20.20;66.60;;;;;;482383;246;2196;-44
2021/07/19 01:28:41;;;;;;;;;;;20.20;66.60;;;;;;482944;246;1063;-43
2021/07/19 01:30:42;;;;;;;;;;;20.20;66.60;;;;;;482917;246;1029;-44
2021/07/19 01:32:44;;;;;;;;;;;20.20;66.60;;;;;;482468;246;1320;-44
2021/07/19 01:34:45;;;;;;;;;;;20.20;66.60;;;;;;482500;246;999;-44
2021/07/19 01:36:47;;;;;;;;;;;20.20;66.60;;;;;;482585;246;1373;-44
2021/07/19 01:38:48;;;;;;;;;;;20.20;66.60;;;;;;482846;246;1041;-44
2021/07/19 01:40:49;;;;;;;;;;;20.20;66.60;;;;;;482765;246;1540;-44
2021/07/19 01:42:50;;;;;;;;;;;20.20;66.50;;;;;;482795;246;1128;-44
2021/07/19 01:44:52;;;;;;;;;;;20.20;66.50;;;;;;482963;246;1171;-44
2021/07/19 01:46:54;;;;;;;;;;;20.20;66.50;;;;;;482363;246;2197;-44
2021/07/19 01:48:54;;;;;;;;;;;20.30;66.50;;;;;;482510;246;2269;-44
2021/07/19 01:50:56;;;;;;;;;;;20.20;66.50;;;;;;482400;246;1142;-44
2021/07/19 01:52:57;;;;;;;;;;;20.20;66.60;;;;;;482440;246;1062;-44
2021/07/19 01:54:58;;;;;;;;;;;20.20;66.50;;;;;;482882;246;1053;-44
2021/07/19 01:57:00;;;;;;;;;;;20.20;66.60;;;;;;482125;246;1168;-44
2021/07/19 01:59:02;;;;;;;;;;;20.20;66.60;;;;;;482700;246;1691;-44
2021/07/19 02:01:02;;;;;;;;;;;20.20;66.50;;;;;;482371;246;2024;-44
2021/07/19 02:03:04;;;;;;;;;;;20.20;66.60;;;;;;482511;246;1253;-44
2021/07/19 02:05:05;;;;;;;;;;;20.20;66.70;;;;;;482928;246;1067;-44
2021/07/19 02:07:06;;;;;;;;;;;20.20;66.60;;;;;;482703;243;2181;-44
2021/07/19 02:09:08;;;;;;;;;;;20.20;66.60;;;;;;482886;246;1118;-44
2021/07/19 02:11:09;;;;;;;;;;;20.20;66.60;;;;;;482742;246;1218;-44
2021/07/19 02:13:10;;;;;;;;;;;20.20;66.60;;;;;;482717;246;1273;-44
2021/07/19 02:15:12;;;;;;;;;;;20.20;66.50;;;;;;482876;246;1207;-44
2021/07/19 02:17:13;;;;;;;;;;;20.20;66.50;;;;;;482434;246;1197;-44
2021/07/19 02:19:14;;;;;;;;;;;20.20;66.60;;;;;;482484;246;1096;-44
2021/07/19 02:21:19;;;;;;;;;;;20.20;66.50;;;;;;482912;246;1355;-44
2021/07/19 02:23:17;;;;;;;;;;;20.20;66.60;;;;;;482270;247;2617;-44
2021/07/19 02:25:18;;;;;;;;;;;20.20;66.60;;;;;;482513;246;1075;-44
2021/07/19 02:27:19;;;;;;;;;;;20.20;66.60;;;;;;482591;246;2157;-44
2021/07/19 02:29:21;;;;;;;;;;;20.20;66.60;;;;;;482965;246;1390;-44
2021/07/19 02:31:22;;;;;;;;;;;20.20;66.50;;;;;;482785;246;1121;-44
2021/07/19 02:33:23;;;;;;;;;;;20.20;66.60;;;;;;482536;246;1076;-44
2021/07/19 02:35:25;;;;;;;;;;;20.20;66.70;;;;;;482929;246;1000;-44
2021/07/19 02:37:26;;;;;;;;;;;20.20;66.70;;;;;;482904;246;1383;-44
2021/07/19 02:39:28;;;;;;;;;;;20.20;66.60;;;;;;482478;246;1158;-44
2021/07/19 02:41:29;;;;;;;;;;;20.20;66.60;;;;;;482759;246;1182;-44
2021/07/19 02:43:30;;;;;;;;;;;20.20;66.60;;;;;;482477;246;1252;-44
2021/07/19 02:45:32;;;;;;;;;;;20.20;66.60;;;;;;482531;246;1199;-44
2021/07/19 02:47:33;;;;;;;;;;;20.20;66.50;;;;;;482253;246;2185;-44
2021/07/19 02:49:34;;;;;;;;;;;20.20;66.60;;;;;;482828;246;1064;-44
2021/07/19 02:51:36;;;;;;;;;;;20.20;66.50;;;;;;482445;246;1336;-44
2021/07/19 02:53:37;;;;;;;;;;;20.20;66.50;;;;;;482720;246;1158;-44
2021/07/19 02:55:38;;;;;;;;;;;20.30;66.50;;;;;;482907;246;1175;-44
2021/07/19 02:57:39;;;;;;;;;;;20.20;66.60;;;;;;482548;246;1182;-44
2021/07/19 02:59:41;;;;;;;;;;;20.20;66.60;;;;;;482333;246;1249;-44
2021/07/19 03:01:42;;;;;;;;;;;20.20;66.60;;;;;;482635;246;1173;-44
2021/07/19 03:03:44;;;;;;;;;;;20.20;66.60;;;;;;482448;246;1119;-44
2021/07/19 03:05:45;;;;;;;;;;;20.20;66.70;;;;;;482494;246;1236;-44
2021/07/19 03:07:46;;;;;;;;;;;20.20;66.60;;;;;;482868;246;2184;-44
2021/07/19 03:09:47;;;;;;;;;;;20.20;66.60;;;;;;482964;246;1022;-44
2021/07/19 03:11:49;;;;;;;;;;;20.20;66.60;;;;;;482387;246;1445;-44
2021/07/19 03:13:50;;;;;;;;;;;20.20;66.60;;;;;;482821;246;1132;-44
2021/07/19 03:15:51;;;;;;;;;;;20.20;66.70;;;;;;482711;246;1205;-44
2021/07/19 03:17:53;;;;;;;;;;;20.20;66.50;;;;;;482427;246;1337;-44
2021/07/19 03:19:55;;;;;;;;;;;20.20;66.50;;;;;;482625;246;1095;-44
2021/07/19 03:21:56;;;;;;;;;;;20.20;66.50;;;;;;482343;246;1669;-44
2021/07/19 03:23:57;;;;;;;;;;;20.20;66.60;;;;;;482890;246;1053;-44
2021/07/19 03:25:58;;;;;;;;;;;20.20;66.50;;;;;;482866;246;1220;-44
2021/07/19 03:27:59;;;;;;;;;;;20.20;66.50;;;;;;482430;246;2138;-44
2021/07/19 03:30:01;;;;;;;;;;;20.20;66.60;;;;;;482655;246;1088;-44
2021/07/19 03:32:02;;;;;;;;;;;20.20;66.60;;;;;;482334;246;1289;-44
2021/07/19 03:34:05;;;;;;;;;;;20.20;66.60;;;;;;482447;246;1181;-44
2021/07/19 03:36:05;;;;;;;;;;;20.20;66.50;;;;;;482714;246;2402;-44
2021/07/19 03:38:06;;;;;;;;;;;20.20;66.60;;;;;;482407;246;1263;-44
2021/07/19 03:40:07;;;;;;;;;;;20.20;66.50;;;;;;482455;246;1047;-44
2021/07/19 03:42:09;;;;;;;;;;;20.20;66.50;;;;;;482334;246;1182;-44
2021/07/19 03:44:10;;;;;;;;;;;20.20;66.60;;;;;;482898;246;1184;-44
2021/07/19 03:46:11;;;;;;;;;;;20.20;66.60;;;;;;482679;246;1375;-44
2021/07/19 03:48:13;;;;;;;;;;;20.20;66.60;;;;;;482367;246;2157;-44
2021/07/19 03:50:14;;;;;;;;;;;20.20;66.60;;;;;;482472;246;1027;-44
2021/07/19 03:52:15;;;;;;;;;;;20.20;66.60;;;;;;482760;246;1735;-44
2021/07/19 03:54:17;;;;;;;;;;;20.20;66.60;;;;;;482906;246;1065;-44
2021/07/19 03:56:18;;;;;;;;;;;20.20;66.60;;;;;;482427;246;1162;-44
2021/07/19 03:58:19;;;;;;;;;;;20.20;66.60;;;;;;482334;246;1250;-44
2021/07/19 04:00:21;;;;;;;;;;;20.20;66.60;;;;;;482298;246;1056;-44
2021/07/19 04:02:22;;;;;;;;;;;20.20;66.60;;;;;;482365;246;1084;-44
2021/07/19 04:04:31;;;;;;;;;;;20.20;66.60;;;;;;482851;246;1064;-44
2021/07/19 04:06:31;;;;;;;;;;;20.20;66.60;;;;;;482496;246;2319;-44
2021/07/19 04:08:33;;;;;;;;;;;20.20;66.60;;;;;;482418;246;2188;-44
2021/07/19 04:10:34;;;;;;;;;;;20.20;66.60;;;;;;482422;246;1101;-44
2021/07/19 04:12:35;;;;;;;;;;;20.20;66.60;;;;;;482349;246;1264;-44
2021/07/19 04:14:36;;;;;;;;;;;20.20;66.60;;;;;;482458;246;1084;-44
2021/07/19 04:16:38;;;;;;;;;;;20.20;66.60;;;;;;482394;246;1230;-44
2021/07/19 04:18:39;;;;;;;;;;;20.20;66.60;;;;;;482840;246;1035;-44
2021/07/19 04:20:40;;;;;;;;;;;20.20;66.60;;;;;;482768;243;1365;-44
2021/07/19 04:22:42;;;;;;;;;;;20.20;66.60;;;;;;482797;246;1168;-44
2021/07/19 04:24:43;;;;;;;;;;;20.20;66.60;;;;;;482402;246;1108;-44
2021/07/19 04:26:44;;;;;;;;;;;20.20;66.70;;;;;;482296;246;1272;-44
2021/07/19 04:28:46;;;;;;;;;;;20.20;66.60;;;;;;482347;246;2142;-44
2021/07/19 04:30:47;;;;;;;;;;;20.20;66.70;;;;;;482758;246;1437;-44
2021/07/19 04:32:48;;;;;;;;;;;20.20;66.60;;;;;;482392;246;1112;-44
2021/07/19 04:34:50;;;;;;;;;;;20.20;66.60;;;;;;482745;246;1086;-44
2021/07/19 04:36:51;;;;;;;;;;;20.20;66.60;;;;;;482675;246;1198;-44
2021/07/19 04:38:52;;;;;;;;;;;20.20;66.70;;;;;;482782;246;1141;-44
2021/07/19 04:40:54;;;;;;;;;;;20.20;66.60;;;;;;482342;246;1408;-44
2021/07/19 04:42:56;;;;;;;;;;;20.20;66.60;;;;;;482320;246;1210;-44
2021/07/19 04:44:58;;;;;;;;;;;20.20;66.60;;;;;;482841;246;1058;-44
2021/07/19 04:46:58;;;;;;;;;;;20.20;66.60;;;;;;482276;246;2969;-44
2021/07/19 04:48:59;;;;;;;;;;;20.20;66.60;;;;;;482193;246;2193;-44
2021/07/19 04:51:00;;;;;;;;;;;20.20;66.60;;;;;;482341;246;1261;-44
2021/07/19 04:53:02;;;;;;;;;;;20.20;66.50;;;;;;482276;246;1208;-44
2021/07/19 04:55:03;;;;;;;;;;;20.20;66.60;;;;;;482224;246;1156;-43
2021/07/19 04:57:04;;;;;;;;;;;20.20;66.60;;;;;;482142;246;1511;-44
2021/07/19 04:59:06;;;;;;;;;;;20.20;66.60;;;;;;482481;246;1118;-44
2021/07/19 05:01:07;;;;;;;;;;;20.20;66.60;;;;;;482459;246;1114;-44
2021/07/19 05:03:08;;;;;;;;;;;20.20;66.60;;;;;;482644;246;1066;-44
2021/07/19 05:05:10;;;;;;;;;;;20.20;66.60;;;;;;482279;246;1484;-43
2021/07/19 05:07:11;;;;;;;;;;;20.20;66.60;;;;;;482379;246;2157;-44
2021/07/19 05:09:12;;;;;;;;;;;20.20;66.60;;;;;;482214;246;1180;-44
2021/07/19 05:11:14;;;;;;;;;;;20.20;66.60;;;;;;482428;246;1456;-44
2021/07/19 05:13:15;;;;;;;;;;;20.20;66.70;;;;;;482156;246;1195;-44
2021/07/19 05:15:16;;;;;;;;;;;20.20;66.70;;;;;;482176;246;1082;-44
2021/07/19 05:17:18;;;;;;;;;;;20.20;66.80;;;;;;482072;246;1514;-44
2021/07/19 05:19:19;;;;;;;;;;;20.20;66.70;;;;;;482173;246;1201;-44
2021/07/19 05:21:20;;;;;;;;;;;20.20;66.50;;;;;;482295;246;1166;-44
2021/07/19 05:23:22;;;;;;;;;;;20.20;66.50;;;;;;482193;246;1175;-44
2021/07/19 05:25:23;;;;;;;;;;;20.20;66.60;;;;;;482191;246;1124;-44
2021/07/19 05:27:24;;;;;;;;;;;20.20;66.60;;;;;;482445;246;2177;-44
2021/07/19 05:29:26;;;;;;;;;;;20.20;66.60;;;;;;482378;246;1184;-44
2021/07/19 05:31:27;;;;;;;;;;;20.20;66.50;;;;;;482093;246;1213;-44
2021/07/19 05:33:28;;;;;;;;;;;20.20;66.50;;;;;;482287;246;1175;-44
2021/07/19 05:35:30;;;;;;;;;;;20.20;66.60;;;;;;482613;246;1084;-44
2021/07/19 05:37:31;;;;;;;;;;;20.20;66.70;;;;;;482095;246;1164;-44
2021/07/19 05:39:32;;;;;;;;;;;20.20;66.60;;;;;;482665;246;1071;-44
2021/07/19 05:41:34;;;;;;;;;;;20.20;66.60;;;;;;482378;246;1192;-44
2021/07/19 05:43:35;;;;;;;;;;;20.20;66.50;;;;;;482150;246;1143;-44
2021/07/19 05:45:37;;;;;;;;;;;20.20;66.60;;;;;;482058;246;1535;-44
2021/07/19 05:47:38;;;;;;;;;;;20.20;66.70;;;;;;482037;246;2193;-44
2021/07/19 05:49:39;;;;;;;;;;;20.20;66.70;;;;;;482218;246;1059;-44
2021/07/19 05:51:40;;;;;;;;;;;20.20;66.60;;;;;;482022;246;1447;-44
2021/07/19 05:53:42;;;;;;;;;;;20.20;66.60;;;;;;482120;246;1170;-44
2021/07/19 05:55:43;;;;;;;;;;;20.20;66.70;;;;;;482046;246;1157;-44
2021/07/19 05:57:45;;;;;;;;;;;20.20;66.60;;;;;;482002;246;1055;-44
2021/07/19 05:59:46;;;;;;;;;;;20.20;66.70;;;;;;482386;246;1147;-44
2021/07/19 06:01:48;;;;;;;;;;;20.20;66.70;;;;;;482326;246;1297;-44
2021/07/19 06:03:49;;;;;;;;;;;20.20;66.70;;;;;;482166;246;1100;-44
2021/07/19 06:05:50;;;;;;;;;;;20.20;66.70;;;;;;481978;246;1228;-44
2021/07/19 06:07:52;;;;;;;;;;;20.20;66.70;;;;;;482061;246;2194;-44
2021/07/19 06:09:53;;;;;;;;;;;20.20;66.70;;;;;;482026;246;1127;-44
2021/07/19 06:11:54;;;;;;;;;;;20.20;66.70;;;;;;482134;246;1362;-44
2021/07/19 06:13:56;;;;;;;;;;;20.20;66.70;;;;;;481934;246;1146;-44
2021/07/19 06:15:57;;;;;;;;;;;20.20;66.70;;;;;;481943;246;1173;-44
2021/07/19 06:17:58;;;;;;;;;;;20.20;66.70;;;;;;482045;246;1101;-44
2021/07/19 06:20:00;;;;;;;;;;;20.20;66.70;;;;;;481945;246;1092;-44
2021/07/19 06:22:01;;;;;;;;;;;20.20;66.60;;;;;;481700;246;1219;-44
2021/07/19 06:24:03;;;;;;;;;;;20.20;66.50;;;;;;481999;246;1085;-44
2021/07/19 06:26:04;;;;;;;;;;;20.20;66.50;;;;;;481922;246;1275;-44
2021/07/19 06:28:05;;;;;;;;;;;20.30;66.50;;;;;;481888;246;2193;-44
2021/07/19 06:30:07;;;;;;;;;;;20.30;66.50;;;;;;481716;246;1185;-44
2021/07/19 06:32:08;;;;;;;;;;;20.20;66.60;;;;;;481773;246;1381;-44
2021/07/19 06:34:09;;;;;;;;;;;20.20;66.50;;;;;;481782;246;1158;-44
2021/07/19 06:36:11;;;;;;;;;;;20.20;66.60;;;;;;481869;246;1243;-44
2021/07/19 06:38:12;;;;;;;;;;;20.20;66.60;;;;;;482219;246;1063;-44
2021/07/19 06:40:13;;;;;;;;;;;20.20;66.60;;;;;;481676;246;1089;-44
2021/07/19 06:42:15;;;;;;;;;;;20.20;66.60;;;;;;481579;246;1412;-44
2021/07/19 06:44:16;;;;;;;;;;;20.20;66.60;;;;;;481843;246;1164;-44
2021/07/19 06:46:17;;;;;;;;;;;20.20;66.70;;;;;;481637;246;1376;-44
2021/07/19 06:48:19;;;;;;;;;;;20.20;66.60;;;;;;481701;246;2197;-44
2021/07/19 06:50:20;;;;;;;;;;;20.20;66.50;;;;;;481857;246;1455;-44
2021/07/19 06:52:21;;;;;;;;;;;20.20;66.50;;;;;;481547;246;1181;-44
2021/07/19 06:54:23;;;;;;;;;;;20.20;66.60;;;;;;481742;246;1131;-44
2021/07/19 06:56:25;;;;;;;;;;;20.20;66.60;;;;;;481539;246;1467;-44
2021/07/19 06:58:25;;;;;;;;;;;20.20;66.60;;;;;;481648;247;1751;-44
2021/07/19 07:00:26;;;;;;;;;;;20.20;66.60;;;;;;481592;246;1153;-44
2021/07/19 07:02:28;;;;;;;;;;;20.20;66.60;;;;;;481652;246;1073;-44
2021/07/19 07:04:29;;;;;;;;;;;20.20;66.50;;;;;;482013;246;1085;-44
2021/07/19 07:06:30;;;;;;;;;;;20.20;66.60;;;;;;481439;246;1481;-44
2021/07/19 07:08:32;;;;;;;;;;;20.20;66.60;;;;;;481648;246;2196;-44
2021/07/19 07:10:33;;;;;;;;;;;20.20;66.60;;;;;;482054;246;1455;-44
2021/07/19 07:12:35;;;;;;;;;;;20.20;66.60;;;;;;481962;246;1026;-44
2021/07/19 07:14:36;;;;;;;;;;;20.20;66.50;;;;;;481815;246;804;-44
2021/07/19 07:16:37;;;;;;;;;;;20.20;66.60;;;;;;481501;246;1172;-44
2021/07/19 07:18:38;;;;;;;;;;;20.20;66.60;;;;;;482035;246;1051;-44
2021/07/19 07:20:40;;;;;;;;;;;20.20;66.60;;;;;;481871;246;1298;-44
2021/07/19 07:22:41;;;;;;;;;;;20.20;66.50;;;;;;481370;246;1106;-44
2021/07/19 07:24:42;;;;;;;;;;;20.20;66.60;;;;;;481841;246;1079;-44
2021/07/19 07:26:44;;;;;;;;;;;20.20;66.70;;;;;;481679;246;1215;-44
2021/07/19 07:28:46;;;;;;;;;;;20.20;66.70;;;;;;481881;246;2193;-44
2021/07/19 07:30:47;;;;;;;;;;;20.20;66.70;;;;;;481786;246;1141;-44
2021/07/19 07:32:48;;;;;;;;;;;20.20;66.60;;;;;;481433;246;1059;-44
2021/07/19 07:34:49;;;;;;;;;;;20.20;66.60;;;;;;482138;246;755;-44
2021/07/19 07:36:51;;;;;;;;;;;20.20;66.60;;;;;;481696;246;1092;-44
2021/07/19 07:38:52;;;;;;;;;;;20.20;66.60;;;;;;481760;246;1090;-44
2021/07/19 07:40:53;;;;;;;;;;;20.20;66.60;;;;;;481525;246;1373;-44
2021/07/19 07:42:54;;;;;;;;;;;20.30;66.50;;;;;;481423;246;1147;-44
2021/07/19 07:44:56;;;;;;;;;;;20.20;66.60;;;;;;481227;246;1182;-44
2021/07/19 07:46:57;;;;;;;;;;;20.20;66.60;;;;;;481278;246;1291;-44
2021/07/19 07:48:58;;;;;;;;;;;20.20;66.50;;;;;;481429;246;2204;-44
2021/07/19 07:51:00;;;;;;;;;;;20.20;66.50;;;;;;481351;246;1374;-44
2021/07/19 07:53:01;;;;;;;;;;;20.20;66.50;;;;;;481677;246;1078;-44
2021/07/19 07:55:02;;;;;;;;;;;20.20;66.50;;;;;;481717;246;839;-44
2021/07/19 07:57:04;;;;;;;;;;;20.20;66.50;;;;;;482083;246;1537;-44
2021/07/19 07:59:05;;;;;;;;;;;20.20;66.60;;;;;;481399;246;1016;-43
2021/07/19 08:01:06;;;;;;;;;;;20.20;66.60;;;;;;481348;246;1418;-44
2021/07/19 08:03:08;;;;;;;;;;;20.20;66.60;;;;;;481758;246;1169;-44
2021/07/19 08:05:09;;;;;;;;;;;20.20;66.50;;;;;;481345;246;1127;-44
2021/07/19 08:07:10;;;;;;;;;;;20.20;66.50;;;;;;481391;246;1474;-44
2021/07/19 08:09:12;;;;;;;;;;;20.20;66.50;;;;;;481422;246;2188;-44
2021/07/19 08:11:13;;;;;;;;;;;20.20;66.60;;;;;;481330;246;1165;-44
2021/07/19 08:13:14;;;;;;;;;;;20.20;66.60;;;;;;481435;246;1096;-44
2021/07/19 08:15:16;;;;;;;;;;;20.20;66.60;;;;;;481275;246;1172;-44
2021/07/19 08:17:17;;;;;;;;;;;20.20;66.50;;;;;;481201;246;1325;-44
2021/07/19 08:19:18;;;;;;;;;;;20.20;66.60;;;;;;481358;246;1097;-44
2021/07/19 08:21:19;;;;;;;;;;;20.20;66.50;;;;;;481256;246;1110;-44
2021/07/19 08:23:21;;;;;;;;;;;20.30;66.60;;;;;;481265;246;1249;-44
2021/07/19 08:25:22;;;;;;;;;;;20.20;66.60;;;;;;481396;246;1094;-44
2021/07/19 08:27:23;;;;;;;;;;;20.20;66.50;;;;;;481414;246;1498;-44
2021/07/19 08:29:25;;;;;;;;;;;20.20;66.60;;;;;;481383;246;2204;-44
2021/07/19 08:31:26;;;;;;;;;;;20.20;66.60;;;;;;481147;246;1310;-44
2021/07/19 08:33:27;;;;;;;;;;;20.20;66.60;;;;;;481082;246;1161;-44
2021/07/19 08:35:29;;;;;;;;;;;20.20;66.60;;;;;;481255;246;1409;-44
2021/07/19 08:37:30;;;;;;;;;;;20.20;66.50;;;;;;481252;246;1353;-44
2021/07/19 08:39:31;;;;;;;;;;;20.20;66.50;;;;;;481672;246;1105;-44
2021/07/19 08:41:33;;;;;;;;;;;20.20;66.60;;;;;;481524;246;1467;-44
2021/07/19 08:43:34;;;;;;;;;;;20.20;66.60;;;;;;481552;246;1385;-44
2021/07/19 08:45:35;;;;;;;;;;;20.20;66.70;;;;;;481866;246;752;-44
2021/07/19 08:47:37;;;;;;;;;;;20.20;66.70;;;;;;481516;246;1081;-44
2021/07/19 08:49:38;;;;;;;;;;;20.20;66.50;;;;;;482029;246;2209;-44
2021/07/19 08:51:39;;;;;;;;;;;20.20;66.60;;;;;;481909;246;1160;-44
2021/07/19 08:53:41;;;;;;;;;;;20.20;66.50;;;;;;481675;246;1263;-43
2021/07/19 08:55:42;;;;;;;;;;;20.20;66.50;;;;;;481353;246;1148;-44
2021/07/19 08:57:46;;;;;;;;;;;20.20;66.50;;;;;;481395;246;1283;-44
2021/07/19 08:59:44;;;;;;;;;;;20.20;66.60;;;;;;481335;246;2151;-44
2021/07/19 09:01:46;;;;;;;;;;;20.20;66.60;;;;;;481301;246;1269;-44
2021/07/19 09:03:47;;;;;;;;;;;20.20;66.60;;;;;;481114;246;1073;-44
2021/07/19 09:05:51;;;;;;;;;;;20.20;66.50;;;;;;481305;246;1203;-44
2021/07/19 09:07:50;;;;;;;;;;;20.20;66.60;;;;;;481323;246;2043;-44
2021/07/19 09:09:51;;;;;;;;;;;20.20;66.60;;;;;;481910;246;2200;-44
2021/07/19 09:11:53;;;;;;;;;;;20.20;66.50;;;;;;481431;246;775;-44
2021/07/19 09:13:54;;;;;;;;;;;20.20;66.50;;;;;;481272;246;795;-44
2021/07/19 09:15:55;;;;;;;;;;;20.20;66.60;;;;;;481645;246;804;-44
2021/07/19 09:17:57;;;;;;;;;;;20.20;66.60;;;;;;481351;246;1991;-44
2021/07/19 09:19:58;;;;;;;;;;;20.30;66.50;;;;;;482143;246;746;-44
2021/07/19 09:21:59;;;;;;;;;;;20.20;66.50;;;;;;482012;246;783;-44
2021/07/19 09:24:01;;;;;;;;;;;20.30;66.50;;;;;;481960;246;791;-44
2021/07/19 09:26:02;;;;;;;;;;;20.20;66.50;;;;;;482020;246;777;-44
2021/07/19 09:28:04;;;;;;;;;;;20.20;66.40;;;;;;481596;246;1086;-44
2021/07/19 09:30:05;;;;;;;;;;;20.20;66.50;;;;;;481610;246;2196;-44
2021/07/19 09:32:07;;;;;;;;;;;20.30;66.50;;;;;;481811;246;1175;-44
2021/07/19 09:34:08;;;;;;;;;;;20.20;66.60;;;;;;481373;246;1196;-44
2021/07/19 09:36:10;;;;;;;;;;;20.20;66.50;;;;;;481381;246;1140;-44
2021/07/19 09:38:11;;;;;;;;;;;20.20;66.60;;;;;;481367;246;2087;-44
2021/07/19 09:40:13;;;;;;;;;;;20.20;66.60;;;;;;481473;246;1155;-44
2021/07/19 09:42:14;;;;;;;;;;;20.20;66.60;;;;;;481377;246;1416;-44
2021/07/19 09:44:15;;;;;;;;;;;20.20;66.50;;;;;;481441;246;1116;-44
2021/07/19 09:46:16;;;;;;;;;;;20.20;66.60;;;;;;481494;246;1250;-44
2021/07/19 09:48:18;;;;;;;;;;;20.20;66.60;;;;;;481824;246;1524;-44
2021/07/19 09:50:19;;;;;;;;;;;20.20;66.50;;;;;;481441;246;2181;-44
2021/07/19 09:52:20;;;;;;;;;;;20.20;66.50;;;;;;481405;246;1692;-44
2021/07/19 09:54:22;;;;;;;;;;;20.20;66.50;;;;;;482082;246;784;-44
2021/07/19 09:56:23;;;;;;;;;;;20.30;66.60;;;;;;481504;246;1072;-44
2021/07/19 09:58:25;;;;;;;;;;;20.20;66.50;;;;;;481610;246;827;-44
2021/07/19 10:00:26;;;;;;;;;;;20.20;66.50;;;;;;481354;246;2279;-44
2021/07/19 10:02:27;;;;;;;;;;;20.20;66.50;;;;;;481521;246;1229;-44
2021/07/19 10:04:29;;;;;;;;;;;20.20;66.50;;;;;;481698;246;1087;-44
2021/07/19 10:06:30;;;;;;;;;;;20.20;66.50;;;;;;481467;246;1521;-44
2021/07/19 10:08:31;;;;;;;;;;;20.20;66.50;;;;;;482128;246;1008;-44
2021/07/19 10:10:33;;;;;;;;;;;20.20;66.60;;;;;;481524;246;2245;-44
2021/07/19 10:12:34;;;;;;;;;;;20.30;66.50;;;;;;481899;246;1024;-44
2021/07/19 10:14:36;;;;;;;;;;;20.20;66.40;;;;;;481859;246;1203;-44
2021/07/19 10:16:37;;;;;;;;;;;20.20;66.60;;;;;;481773;246;1137;-44
2021/07/19 10:18:38;;;;;;;;;;;20.20;66.60;;;;;;481394;246;1431;-44
2021/07/19 10:20:39;;;;;;;;;;;20.30;66.50;;;;;;481408;246;1447;-44
2021/07/19 10:22:41;;;;;;;;;;;20.20;66.50;;;;;;481527;246;1183;-44
2021/07/19 10:24:42;;;;;;;;;;;20.20;66.50;;;;;;481633;246;814;-44
2021/07/19 10:26:44;;;;;;;;;;;20.20;66.50;;;;;;481574;246;1184;-44
2021/07/19 10:28:45;;;;;;;;;;;20.30;66.50;;;;;;481722;246;2029;-44
2021/07/19 10:30:46;;;;;;;;;;;20.20;66.50;;;;;;481518;246;2245;-44
2021/07/19 10:32:48;;;;;;;;;;;20.20;66.40;;;;;;481468;246;1335;-44
2021/07/19 10:34:49;;;;;;;;;;;20.30;66.40;;;;;;481998;246;1282;-44
2021/07/19 10:36:50;;;;;;;;;;;20.20;66.50;;;;;;481512;246;1174;-43
2021/07/19 10:38:51;;;;;;;;;;;20.20;66.50;;;;;;481572;246;1161;-44
2021/07/19 10:40:53;;;;;;;;;;;20.30;66.40;;;;;;481559;246;1319;-44
2021/07/19 10:42:54;;;;;;;;;;;20.20;66.40;;;;;;481482;246;1273;-44
2021/07/19 10:44:55;;;;;;;;;;;20.20;66.50;;;;;;481406;246;1141;-44
2021/07/19 10:46:57;;;;;;;;;;;20.20;66.50;;;;;;481397;246;1234;-44
2021/07/19 10:48:58;;;;;;;;;;;20.20;66.50;;;;;;481423;246;2023;-44
2021/07/19 10:51:00;;;;;;;;;;;20.20;66.60;;;;;;481041;246;2192;-44
2021/07/19 10:53:01;;;;;;;;;;;20.20;66.50;;;;;;481291;246;1114;-44
2021/07/19 10:55:02;;;;;;;;;;;20.20;66.60;;;;;;481344;246;1105;-44
2021/07/19 10:57:04;;;;;;;;;;;20.20;66.60;;;;;;481482;246;1273;-44
2021/07/19 10:59:05;;;;;;;;;;;20.30;66.50;;;;;;481442;246;1095;-43
2021/07/19 11:01:06;;;;;;;;;;;20.30;66.50;;;;;;481412;246;1233;-44
2021/07/19 11:03:07;;;;;;;;;;;20.20;66.50;;;;;;481468;246;1158;-44
2021/07/19 11:05:09;;;;;;;;;;;20.20;66.50;;;;;;481407;246;1069;-44
2021/07/19 11:07:10;;;;;;;;;;;20.20;66.60;;;;;;481094;246;1247;-44
2021/07/19 11:09:11;;;;;;;;;;;20.20;66.60;;;;;;481261;246;1153;-44
2021/07/19 11:11:13;;;;;;;;;;;20.20;66.50;;;;;;481308;246;2189;-44
2021/07/19 11:13:14;;;;;;;;;;;20.20;66.50;;;;;;481482;246;1284;-44
2021/07/19 11:15:15;;;;;;;;;;;20.20;66.50;;;;;;481436;246;1105;-44
2021/07/19 11:17:17;;;;;;;;;;;20.20;66.50;;;;;;481564;246;1186;-44
2021/07/19 11:19:19;;;;;;;;;;;20.20;66.50;;;;;;481566;246;1164;-43
2021/07/19 11:21:19;;;;;;;;;;;20.20;66.50;;;;;;481518;246;1703;-44
2021/07/19 11:23:21;;;;;;;;;;;20.30;66.50;;;;;;481590;246;1202;-44
2021/07/19 11:25:22;;;;;;;;;;;20.20;66.60;;;;;;481570;246;1279;-44
2021/07/19 11:27:23;;;;;;;;;;;20.20;66.50;;;;;;482041;246;1160;-44
2021/07/19 11:29:25;;;;;;;;;;;20.20;66.50;;;;;;482339;246;2196;-44
2021/07/19 11:31:26;;;;;;;;;;;20.20;66.50;;;;;;482307;246;1186;-44
2021/07/19 11:33:27;;;;;;;;;;;20.20;66.50;;;;;;481457;246;1193;-44
2021/07/19 11:35:29;;;;;;;;;;;20.20;66.50;;;;;;481289;246;1341;-44
2021/07/19 11:37:30;;;;;;;;;;;20.20;66.50;;;;;;481212;246;1295;-44
2021/07/19 11:39:31;;;;;;;;;;;20.30;66.50;;;;;;481375;246;1402;-44
2021/07/19 11:41:33;;;;;;;;;;;20.20;66.30;;;;;;481361;246;1236;-44
2021/07/19 11:43:34;;;;;;;;;;;20.20;66.40;;;;;;481525;246;1206;-44
2021/07/19 11:45:35;;;;;;;;;;;20.20;66.50;;;;;;481206;246;1290;-44
2021/07/19 11:47:37;;;;;;;;;;;20.20;66.40;;;;;;481339;246;1528;-44
2021/07/19 11:49:38;;;;;;;;;;;20.20;66.50;;;;;;481449;246;2857;-44
2021/07/19 11:51:39;;;;;;;;;;;20.20;66.50;;;;;;481351;246;1515;-44
2021/07/19 11:53:41;;;;;;;;;;;20.20;66.50;;;;;;481506;246;1113;-46
2021/07/19 11:55:42;;;;;;;;;;;20.20;66.50;;;;;;481321;246;1255;-44
2021/07/19 11:57:43;;;;;;;;;;;20.20;66.50;;;;;;481609;246;1390;-44